createdAt,value
2022-09-12T00:00:15.942Z,100.00
2022-09-12T00:02:42.800Z,100.00
2022-09-12T00:05:09.791Z,100.00
2022-09-12T00:07:36.736Z,100.00
2022-09-12T00:10:04.376Z,100.00
2022-09-12T00:12:31.797Z,100.00
2022-09-12T00:14:59.368Z,100.00
2022-09-12T00:17:26.464Z,100.00
2022-09-12T00:19:53.454Z,100.00
2022-09-12T00:22:20.745Z,100.00
2022-09-12T00:24:47.645Z,100.00
2022-09-12T00:27:14.558Z,100.00
2022-09-12T00:29:41.558Z,100.00
2022-09-12T00:32:08.517Z,100.00
2022-09-12T00:34:36.632Z,100.00
2022-09-12T00:37:04.130Z,100.00
2022-09-12T00:39:31.039Z,100.00
2022-09-12T00:41:58.482Z,100.00
2022-09-12T00:44:25.227Z,100.00
2022-09-12T00:47:01.140Z,100.00
2022-09-12T00:49:48.481Z,100.00
2022-09-12T00:52:22.718Z,100.00
2022-09-12T00:55:14.137Z,100.00
2022-09-12T00:57:52.247Z,100.00
2022-09-12T01:00:22.579Z,100.00
2022-09-12T01:02:54.289Z,100.00
2022-09-12T01:05:24.038Z,100.00
2022-09-12T01:07:51.858Z,100.00
2022-09-12T01:10:19.799Z,100.00
2022-09-12T01:12:48.015Z,100.00
2022-09-12T01:15:15.092Z,100.00
2022-09-12T01:18:07.775Z,100.00
2022-09-12T01:21:11.606Z,100.00
2022-09-12T01:24:24.608Z,100.00
2022-09-12T01:27:03.915Z,100.00
2022-09-12T01:30:08.023Z,100.00
2022-09-12T01:33:11.654Z,100.00
2022-09-12T01:36:26.617Z,100.00
2022-09-12T01:39:06.591Z,100.00
2022-09-12T01:42:10.172Z,100.00
2022-09-12T01:44:48.213Z,100.00
2022-09-12T01:47:34.090Z,100.00
2022-09-12T01:50:18.684Z,100.00
2022-09-12T01:53:12.801Z,100.00
2022-09-12T01:55:50.091Z,100.00
2022-09-12T01:58:30.025Z,100.00
2022-09-12T02:01:22.589Z,100.00
2022-09-12T02:04:04.447Z,100.00
2022-09-12T02:06:50.354Z,100.00
2022-09-12T02:09:37.251Z,100.00
2022-09-12T02:12:08.856Z,100.00
2022-09-12T02:14:46.580Z,100.00
2022-09-12T02:17:16.646Z,100.00
2022-09-12T02:19:51.308Z,100.00
2022-09-12T02:22:21.810Z,100.00
2022-09-12T02:24:54.299Z,100.00
2022-09-12T02:27:42.368Z,100.00
2022-09-12T02:30:10.919Z,100.00
2022-09-12T02:33:03.983Z,100.00
2022-09-12T02:35:43.799Z,100.00
2022-09-12T02:38:20.406Z,100.00
2022-09-12T02:40:47.459Z,100.00
2022-09-12T02:43:14.331Z,100.00
2022-09-12T02:45:41.509Z,100.00
2022-09-12T02:48:20.175Z,100.00
2022-09-12T02:50:47.319Z,100.00
2022-09-12T02:53:14.578Z,100.00
2022-09-12T02:55:42.953Z,100.00
2022-09-12T02:58:19.263Z,100.00
2022-09-12T03:01:29.651Z,100.00
2022-09-12T03:04:44.455Z,100.00
2022-09-12T03:07:21.860Z,100.00
2022-09-12T03:10:05.421Z,100.00
2022-09-12T03:13:06.240Z,100.00
2022-09-12T03:15:53.993Z,100.00
2022-09-12T03:18:42.056Z,100.00
2022-09-12T03:21:30.346Z,100.00
2022-09-12T03:24:09.385Z,100.00
2022-09-12T03:26:57.738Z,100.00
2022-09-12T03:29:26.248Z,100.00
2022-09-12T03:31:57.757Z,100.00
2022-09-12T03:34:27.171Z,100.00
2022-09-12T03:36:55.502Z,100.00
2022-09-12T03:39:27.898Z,100.00
2022-09-12T03:41:55.884Z,100.00
2022-09-12T03:44:23.942Z,100.00
2022-09-12T03:46:51.217Z,100.00
2022-09-12T03:49:18.379Z,100.00
2022-09-12T03:51:45.290Z,100.00
2022-09-12T03:54:12.616Z,100.00
2022-09-12T03:56:41.151Z,100.00
2022-09-12T03:59:08.189Z,100.00
2022-09-12T04:01:35.421Z,100.00
2022-09-12T04:04:02.682Z,100.00
2022-09-12T04:06:29.791Z,100.00
2022-09-12T04:08:57.262Z,100.00
2022-09-12T04:11:24.243Z,100.00
2022-09-12T04:13:51.289Z,100.00
2022-09-12T04:16:19.052Z,100.00
2022-09-12T04:18:47.020Z,100.00
2022-09-12T04:21:21.703Z,100.00
2022-09-12T04:23:49.099Z,100.00
2022-09-12T04:26:17.852Z,100.00
2022-09-12T04:28:46.336Z,100.00
2022-09-12T04:31:18.003Z,100.00
2022-09-12T04:33:46.259Z,100.00
2022-09-12T04:36:18.025Z,100.00
2022-09-12T04:38:47.160Z,100.00
2022-09-12T04:41:16.185Z,100.00
2022-09-12T04:43:46.634Z,100.00
2022-09-12T04:46:16.681Z,100.00
2022-09-12T04:48:44.160Z,100.00
2022-09-12T04:51:16.160Z,100.00
2022-09-12T04:53:47.719Z,100.00
2022-09-12T04:56:14.816Z,100.00
2022-09-12T04:58:41.981Z,100.00
2022-09-12T05:01:18.590Z,100.00
2022-09-12T05:03:47.398Z,100.00
2022-09-12T05:06:23.914Z,100.00
2022-09-12T05:08:52.396Z,100.00
2022-09-12T05:11:25.500Z,100.00
2022-09-12T05:13:55.322Z,100.00
2022-09-12T05:16:23.986Z,100.00
2022-09-12T05:18:50.967Z,100.00
2022-09-12T05:21:21.321Z,100.00
2022-09-12T05:23:57.594Z,100.00
2022-09-12T05:26:24.746Z,100.00
2022-09-12T05:28:53.067Z,100.00
2022-09-12T05:31:26.218Z,100.00
2022-09-12T05:33:55.414Z,100.00
2022-09-12T05:36:30.682Z,100.00
2022-09-12T05:38:59.752Z,100.00
2022-09-12T05:41:33.976Z,100.00
2022-09-12T05:44:04.201Z,100.00
2022-09-12T05:46:37.337Z,100.00
2022-09-12T05:49:11.401Z,100.00
2022-09-12T05:51:43.029Z,100.00
2022-09-12T05:54:14.007Z,100.00
2022-09-12T05:56:43.084Z,100.00
2022-09-12T05:59:19.858Z,100.00
2022-09-12T06:01:47.527Z,100.00
2022-09-12T06:04:14.698Z,100.00
2022-09-12T06:06:48.613Z,100.00
2022-09-12T06:09:17.021Z,100.00
2022-09-12T06:11:46.199Z,100.00
2022-09-12T06:14:15.969Z,100.00
2022-09-12T06:16:43.132Z,100.00
2022-09-12T06:19:19.824Z,100.00
2022-09-12T06:21:48.288Z,100.00
2022-09-12T06:24:17.543Z,100.00
2022-09-12T06:26:44.966Z,100.00
2022-09-12T06:29:13.246Z,100.00
2022-09-12T06:31:42.241Z,100.00
2022-09-12T06:34:13.938Z,100.00
2022-09-12T06:36:44.768Z,100.00
2022-09-12T06:39:17.893Z,100.00
2022-09-12T06:41:45.597Z,100.00
2022-09-12T06:44:16.689Z,100.00
2022-09-12T06:46:44.398Z,100.00
2022-09-12T06:49:12.133Z,100.00
2022-09-12T06:51:39.282Z,100.00
2022-09-12T06:54:06.186Z,100.00
2022-09-12T06:56:33.651Z,100.00
2022-09-12T06:59:00.561Z,100.00
2022-09-12T07:01:31.045Z,100.00
2022-09-12T07:04:04.016Z,100.00
2022-09-12T07:06:40.763Z,100.00
2022-09-12T07:09:11.330Z,100.00
2022-09-12T07:11:41.082Z,100.00
2022-09-12T07:14:12.735Z,100.00
2022-09-12T07:16:40.121Z,100.00
2022-09-12T07:19:08.479Z,100.00
2022-09-12T07:21:40.326Z,100.00
2022-09-12T07:24:10.002Z,100.00
2022-09-12T07:26:38.080Z,100.00
2022-09-12T07:29:25.514Z,100.00
2022-09-12T07:31:52.092Z,100.00
2022-09-12T07:34:19.215Z,100.00
2022-09-12T07:36:46.256Z,100.00
2022-09-12T07:39:13.180Z,100.00
2022-09-12T07:41:40.167Z,100.00
2022-09-12T07:44:07.228Z,100.00
2022-09-12T07:46:35.141Z,100.00
2022-09-12T07:49:02.989Z,100.00
2022-09-12T07:51:31.488Z,100.00
2022-09-12T07:53:59.428Z,100.00
2022-09-12T07:56:32.696Z,100.00
2022-09-12T07:59:01.694Z,100.00
2022-09-12T08:01:28.695Z,100.00
2022-09-12T08:04:00.344Z,100.00
2022-09-12T08:06:30.975Z,100.00
2022-09-12T08:08:59.376Z,100.00
2022-09-12T08:11:28.799Z,100.00
2022-09-12T08:13:58.055Z,100.00
2022-09-12T08:16:28.485Z,100.00
2022-09-12T08:18:55.661Z,100.00
2022-09-12T08:21:31.563Z,100.00
2022-09-12T08:24:04.943Z,100.00
2022-09-12T08:26:33.672Z,100.00
2022-09-12T08:29:01.414Z,100.00
2022-09-12T08:31:28.612Z,100.00
2022-09-12T08:33:58.968Z,100.00
2022-09-12T08:36:28.030Z,100.00
2022-09-12T08:39:02.673Z,100.00
2022-09-12T08:41:47.885Z,100.00
2022-09-12T08:44:59.889Z,100.00
2022-09-12T08:47:33.022Z,100.00
2022-09-12T08:50:09.518Z,100.00
2022-09-12T08:52:58.424Z,100.00
2022-09-12T08:55:44.858Z,100.00
2022-09-12T08:58:16.084Z,100.00
2022-09-12T09:00:55.776Z,100.00
2022-09-12T09:04:01.421Z,100.00
2022-09-12T09:07:02.554Z,100.00
2022-09-12T09:10:09.252Z,100.00
2022-09-12T09:13:04.774Z,100.00
2022-09-12T09:16:16.095Z,100.00
2022-09-12T09:18:46.074Z,100.00
2022-09-12T09:21:33.586Z,100.00
2022-09-12T09:24:14.281Z,100.00
2022-09-12T09:26:49.617Z,100.00
2022-09-12T09:29:23.676Z,100.00
2022-09-12T09:31:55.848Z,100.00
2022-09-12T09:34:26.244Z,100.00
2022-09-12T09:37:19.576Z,100.00
2022-09-12T09:40:15.712Z,100.00
2022-09-12T09:43:16.946Z,100.00
2022-09-12T09:45:47.308Z,100.00
2022-09-12T09:48:46.731Z,100.00
2022-09-12T09:51:17.795Z,100.00
2022-09-12T09:54:23.566Z,100.00
2022-09-12T09:56:51.075Z,100.00
2022-09-12T09:59:31.263Z,100.00
2022-09-12T10:02:03.779Z,100.00
2022-09-12T10:04:41.076Z,100.00
2022-09-12T10:07:19.638Z,100.00
2022-09-12T10:10:11.136Z,100.00
2022-09-12T10:12:38.157Z,100.00
2022-09-12T10:15:26.475Z,100.00
2022-09-12T10:17:55.826Z,100.00
2022-09-12T10:20:44.682Z,100.00
2022-09-12T10:23:45.216Z,100.00
2022-09-12T10:26:16.238Z,100.00
2022-09-12T10:28:52.417Z,100.00
2022-09-12T10:31:41.492Z,100.00
2022-09-12T10:34:30.542Z,100.00
2022-09-12T10:37:19.666Z,100.00
2022-09-12T10:39:55.119Z,100.00
2022-09-12T10:42:50.310Z,100.00
2022-09-12T10:45:24.665Z,100.00
2022-09-12T10:47:53.768Z,100.00
2022-09-12T10:50:30.249Z,100.00
2022-09-12T10:53:20.454Z,100.00
2022-09-12T10:56:13.702Z,100.00
2022-09-12T10:59:19.956Z,100.00
2022-09-12T11:02:15.690Z,100.00
2022-09-12T11:04:46.734Z,100.00
2022-09-12T11:07:46.816Z,100.00
2022-09-12T11:11:00.089Z,100.00
2022-09-12T11:13:47.735Z,100.00
2022-09-12T11:16:41.084Z,100.00
2022-09-12T11:19:37.323Z,100.00
2022-09-12T11:22:28.731Z,91.47
2022-09-12T11:25:10.476Z,87.93
2022-09-12T11:27:52.205Z,75.52
2022-09-12T11:30:19.061Z,77.84
2022-09-12T11:33:05.786Z,62.31
2022-09-12T11:35:35.842Z,57.81
2022-09-12T11:38:33.002Z,57.31
2022-09-12T11:41:06.469Z,53.41
2022-09-12T11:44:01.197Z,54.12
2022-09-12T11:46:35.008Z,61.59
2022-09-12T11:49:13.700Z,66.59
2022-09-12T11:52:15.965Z,62.16
2022-09-12T11:54:53.867Z,54.38
2022-09-12T11:57:46.109Z,54.62
2022-09-12T12:00:38.136Z,46.07
2022-09-12T12:03:23.703Z,50.20
2022-09-12T12:06:04.939Z,55.82
2022-09-12T12:08:41.082Z,54.04
2022-09-12T12:11:09.083Z,52.72
2022-09-12T12:13:56.226Z,51.96
2022-09-12T12:16:35.215Z,49.10
2022-09-12T12:19:27.334Z,46.18
2022-09-12T12:21:54.337Z,46.19
2022-09-12T12:24:24.187Z,49.17
2022-09-12T12:26:53.612Z,44.57
2022-09-12T12:29:20.521Z,45.80
2022-09-12T12:31:59.418Z,44.19
2022-09-12T12:34:46.193Z,46.92
2022-09-12T12:37:19.034Z,41.42
2022-09-12T12:39:46.759Z,39.77
2022-09-12T12:42:35.437Z,39.30
2022-09-12T12:45:04.456Z,39.99
2022-09-12T12:47:46.254Z,40.67
2022-09-12T12:50:21.789Z,38.18
2022-09-12T12:52:55.653Z,37.90
2022-09-12T12:55:31.253Z,39.27
2022-09-12T12:58:01.312Z,38.21
2022-09-12T13:00:39.830Z,38.42
2022-09-12T13:03:06.864Z,38.38
2022-09-12T13:05:54.368Z,34.96
2022-09-12T13:08:31.682Z,36.29
2022-09-12T13:11:07.778Z,35.14
2022-09-12T13:13:58.265Z,33.96
2022-09-12T13:16:37.358Z,34.97
2022-09-12T13:19:14.945Z,31.82
2022-09-12T13:22:07.836Z,33.50
2022-09-12T13:24:44.649Z,32.77
2022-09-12T13:27:25.693Z,33.60
2022-09-12T13:30:15.209Z,32.04
2022-09-12T13:32:43.576Z,33.41
2022-09-12T13:35:34.218Z,33.47
2022-09-12T13:38:32.824Z,34.58
2022-09-12T13:41:36.765Z,35.79
2022-09-12T13:44:09.756Z,33.88
2022-09-12T13:46:37.298Z,31.63
2022-09-12T13:49:35.994Z,34.53
2022-09-12T13:52:21.236Z,31.94
2022-09-12T13:54:52.313Z,35.13
2022-09-12T13:57:38.425Z,37.22
2022-09-12T14:00:22.324Z,34.89
2022-09-12T14:02:49.444Z,40.30
2022-09-12T14:05:25.791Z,41.87
2022-09-12T14:08:00.438Z,41.23
2022-09-12T14:10:40.807Z,44.40
2022-09-12T14:13:22.324Z,42.80
2022-09-12T14:15:52.999Z,48.28
2022-09-12T14:18:30.134Z,45.75
2022-09-12T14:21:06.151Z,46.97
2022-09-12T14:23:36.661Z,45.08
2022-09-12T14:26:11.411Z,48.94
2022-09-12T14:28:42.242Z,46.21
2022-09-12T14:31:18.384Z,48.49
2022-09-12T14:34:12.341Z,55.93
2022-09-12T14:36:56.112Z,48.77
2022-09-12T14:39:33.080Z,48.81
2022-09-12T14:42:20.964Z,54.58
2022-09-12T14:45:01.301Z,51.38
2022-09-12T14:47:38.706Z,47.40
2022-09-12T14:50:20.387Z,48.18
2022-09-12T14:53:03.090Z,47.15
2022-09-12T14:55:33.636Z,49.04
2022-09-12T14:58:29.932Z,50.45
2022-09-12T15:01:05.906Z,47.50
2022-09-12T15:03:36.795Z,46.60
2022-09-12T15:06:09.637Z,56.06
2022-09-12T15:08:36.619Z,52.24
2022-09-12T15:11:07.130Z,50.14
2022-09-12T15:13:41.678Z,45.99
2022-09-12T15:16:11.668Z,51.22
2022-09-12T15:18:39.135Z,55.09
2022-09-12T15:21:08.694Z,50.70
2022-09-12T15:23:48.142Z,49.85
2022-09-12T15:26:19.400Z,53.20
2022-09-12T15:28:46.691Z,59.52
2022-09-12T15:31:26.695Z,52.89
2022-09-12T15:33:54.956Z,53.39
2022-09-12T15:36:23.489Z,55.58
2022-09-12T15:38:51.124Z,62.07
2022-09-12T15:41:22.004Z,59.85
2022-09-12T15:43:50.323Z,58.97
2022-09-12T15:46:19.002Z,65.63
2022-09-12T15:48:46.606Z,53.75
2022-09-12T15:51:18.622Z,57.29
2022-09-12T15:53:46.923Z,54.96
2022-09-12T15:56:16.807Z,57.40
2022-09-12T15:58:57.860Z,64.41
2022-09-12T16:01:25.731Z,56.17
2022-09-12T16:04:00.287Z,59.70
2022-09-12T16:06:33.553Z,61.77
2022-09-12T16:09:02.060Z,57.59
2022-09-12T16:11:29.030Z,57.64
2022-09-12T16:13:56.921Z,60.87
2022-09-12T16:16:23.963Z,72.55
2022-09-12T16:18:54.375Z,65.45
2022-09-12T16:21:21.330Z,58.42
2022-09-12T16:23:48.709Z,64.93
2022-09-12T16:26:16.826Z,54.80
2022-09-12T16:28:44.256Z,54.28
2022-09-12T16:31:13.805Z,68.17
2022-09-12T16:33:42.934Z,67.02
2022-09-12T16:36:13.849Z,69.14
2022-09-12T16:38:51.059Z,66.41
2022-09-12T16:41:21.164Z,61.02
2022-09-12T16:43:48.753Z,56.83
2022-09-12T16:46:20.640Z,58.45
2022-09-12T16:48:54.468Z,54.94
2022-09-12T16:51:25.869Z,58.24
2022-09-12T16:53:54.311Z,66.30
2022-09-12T16:56:21.573Z,68.03
2022-09-12T16:58:49.011Z,69.95
2022-09-12T17:01:20.165Z,77.33
2022-09-12T17:03:55.670Z,74.29
2022-09-12T17:06:27.114Z,76.52
2022-09-12T17:08:58.165Z,74.53
2022-09-12T17:11:32.514Z,71.82
2022-09-12T17:14:05.822Z,72.39
2022-09-12T17:16:36.665Z,79.62
2022-09-12T17:19:04.505Z,79.19
2022-09-12T17:21:31.667Z,79.28
2022-09-12T17:23:59.330Z,78.57
2022-09-12T17:26:26.793Z,73.39
2022-09-12T17:28:53.825Z,67.02
2022-09-12T17:31:21.085Z,70.05
2022-09-12T17:33:48.241Z,73.00
2022-09-12T17:36:17.835Z,78.45
2022-09-12T17:38:46.945Z,79.70
2022-09-12T17:41:23.440Z,76.24
2022-09-12T17:43:56.503Z,75.11
2022-09-12T17:46:36.794Z,74.40
2022-09-12T17:49:07.842Z,83.96
2022-09-12T17:51:35.310Z,86.26
2022-09-12T17:54:16.360Z,80.15
2022-09-12T17:56:45.984Z,87.57
2022-09-12T17:59:21.933Z,86.39
2022-09-12T18:02:07.915Z,91.89
2022-09-12T18:04:34.892Z,98.05
2022-09-12T18:07:02.231Z,95.90
2022-09-12T18:09:30.866Z,91.87
2022-09-12T18:11:58.436Z,90.47
2022-09-12T18:14:28.505Z,99.53
2022-09-12T18:16:57.109Z,97.95
2022-09-12T18:19:25.039Z,97.76
2022-09-12T18:21:51.975Z,98.22
2022-09-12T18:24:19.176Z,100.00
2022-09-12T18:26:46.126Z,100.00
2022-09-12T18:29:16.801Z,100.00
2022-09-12T18:31:44.584Z,100.00
2022-09-12T18:34:14.877Z,98.00
2022-09-12T18:36:44.401Z,100.00
2022-09-12T18:39:12.701Z,98.16
2022-09-12T18:41:40.671Z,98.85
2022-09-12T18:44:10.519Z,100.00
2022-09-12T18:46:40.282Z,100.00
2022-09-12T18:49:09.508Z,100.00
2022-09-12T18:51:39.906Z,100.00
2022-09-12T18:54:13.002Z,100.00
2022-09-12T18:56:43.472Z,100.00
2022-09-12T18:59:13.015Z,100.00
2022-09-12T19:01:40.346Z,100.00
2022-09-12T19:04:09.895Z,100.00
2022-09-12T19:06:43.555Z,100.00
2022-09-12T19:09:13.151Z,100.00
2022-09-12T19:11:48.698Z,100.00
2022-09-12T19:14:26.127Z,100.00
2022-09-12T19:16:53.760Z,100.00
2022-09-12T19:19:21.283Z,100.00
2022-09-12T19:21:48.195Z,100.00
2022-09-12T19:24:17.616Z,100.00
2022-09-12T19:26:45.552Z,100.00
2022-09-12T19:29:13.845Z,100.00
2022-09-12T19:31:40.952Z,100.00
2022-09-12T19:34:08.683Z,100.00
2022-09-12T19:36:51.707Z,100.00
2022-09-12T19:39:19.977Z,100.00
2022-09-12T19:41:47.547Z,100.00
2022-09-12T19:44:14.754Z,100.00
2022-09-12T19:46:41.942Z,100.00
2022-09-12T19:49:11.807Z,100.00
2022-09-12T19:51:38.925Z,100.00
2022-09-12T19:54:06.129Z,100.00
2022-09-12T19:56:33.518Z,100.00
2022-09-12T19:59:00.478Z,100.00
2022-09-12T20:01:28.458Z,100.00
2022-09-12T20:03:57.347Z,100.00
2022-09-12T20:06:25.121Z,100.00
2022-09-12T20:08:52.013Z,100.00
2022-09-12T20:11:21.639Z,100.00
2022-09-12T20:13:48.983Z,100.00
2022-09-12T20:16:29.081Z,100.00
2022-09-12T20:19:02.729Z,97.38
2022-09-12T20:21:32.204Z,100.00
2022-09-12T20:24:10.487Z,99.87
2022-09-12T20:26:37.761Z,100.00
2022-09-12T20:29:06.325Z,100.00
2022-09-12T20:31:34.752Z,100.00
2022-09-12T20:34:02.012Z,100.00
2022-09-12T20:36:29.031Z,100.00
2022-09-12T20:39:00.188Z,100.00
2022-09-12T20:41:30.790Z,100.00
2022-09-12T20:43:58.138Z,100.00
2022-09-12T20:46:27.095Z,96.34
2022-09-12T20:48:54.831Z,100.00
2022-09-12T20:51:22.564Z,100.00
2022-09-12T20:54:11.131Z,100.00
2022-09-12T20:56:38.339Z,100.00
2022-09-12T20:59:05.953Z,100.00
2022-09-12T21:01:33.225Z,100.00
2022-09-12T21:04:01.227Z,100.00
2022-09-12T21:06:28.379Z,100.00
2022-09-12T21:09:00.517Z,100.00
2022-09-12T21:11:28.701Z,100.00
2022-09-12T21:13:55.819Z,100.00
2022-09-12T21:16:23.624Z,100.00
2022-09-12T21:18:59.506Z,100.00
2022-09-12T21:21:26.913Z,100.00
2022-09-12T21:23:57.707Z,100.00
2022-09-12T21:26:24.746Z,100.00
2022-09-12T21:28:51.620Z,100.00
2022-09-12T21:31:18.598Z,100.00
2022-09-12T21:33:45.634Z,100.00
2022-09-12T21:36:12.602Z,100.00
2022-09-12T21:38:39.499Z,100.00
2022-09-12T21:41:12.403Z,100.00
2022-09-12T21:43:39.575Z,100.00
2022-09-12T21:46:08.091Z,100.00
2022-09-12T21:48:35.886Z,100.00
2022-09-12T21:51:03.591Z,100.00
2022-09-12T21:53:31.095Z,100.00
2022-09-12T21:56:07.428Z,100.00
2022-09-12T21:58:35.995Z,100.00
2022-09-12T22:01:04.691Z,100.00
2022-09-12T22:03:32.146Z,100.00
2022-09-12T22:06:02.119Z,100.00
2022-09-12T22:08:30.979Z,100.00
2022-09-12T22:11:00.687Z,100.00
2022-09-12T22:13:31.341Z,100.00
2022-09-12T22:15:58.640Z,100.00
2022-09-12T22:18:25.806Z,100.00
2022-09-12T22:21:19.713Z,100.00
2022-09-12T22:24:05.668Z,100.00
2022-09-12T22:26:42.146Z,100.00
2022-09-12T22:29:10.385Z,100.00
2022-09-12T22:31:38.209Z,100.00
2022-09-12T22:34:06.111Z,100.00
2022-09-12T22:36:36.989Z,100.00
2022-09-12T22:39:06.096Z,100.00
2022-09-12T22:41:33.031Z,100.00
2022-09-12T22:43:59.963Z,100.00
2022-09-12T22:46:27.573Z,100.00
2022-09-12T22:48:55.637Z,100.00
2022-09-12T22:51:22.810Z,100.00
2022-09-12T22:53:49.787Z,100.00
2022-09-12T22:56:17.143Z,100.00
2022-09-12T22:58:44.067Z,100.00
2022-09-12T23:01:11.621Z,100.00
2022-09-12T23:03:38.687Z,100.00
2022-09-12T23:06:06.464Z,100.00
2022-09-12T23:08:36.170Z,100.00
2022-09-12T23:11:10.838Z,100.00
2022-09-12T23:13:39.095Z,100.00
2022-09-12T23:16:08.083Z,100.00
2022-09-12T23:18:36.167Z,100.00
2022-09-12T23:21:07.681Z,100.00
2022-09-12T23:23:35.833Z,100.00
2022-09-12T23:26:04.794Z,100.00
2022-09-12T23:28:32.245Z,100.00
2022-09-12T23:31:00.443Z,100.00
2022-09-12T23:33:29.489Z,100.00
2022-09-12T23:36:12.805Z,100.00
2022-09-12T23:38:41.604Z,100.00
2022-09-12T23:41:09.647Z,100.00
2022-09-12T23:43:37.002Z,100.00
2022-09-12T23:46:04.651Z,100.00
2022-09-12T23:48:32.269Z,100.00
2022-09-12T23:51:00.084Z,100.00
2022-09-12T23:53:27.644Z,100.00
2022-09-12T23:55:54.635Z,100.00
2022-09-12T23:58:22.710Z,100.00
